Aviation Digital Data Service (ADDS)

Output produced by METARs form (2354 UTC 21 December 2014)
found at http://www.aviationweather.gov/adds/metars/
 
KROW 212351Z 26011KT 10SM CLR 17/M04 A2974 RMK AO2 SLP047 T01671039 10194 20139 56012
KROW 212251Z 26009KT 10SM CLR 18/M04 A2975 RMK AO2 SLP050 T01831039
KROW 212151Z 29015KT 10SM CLR 19/M04 A2972 RMK AO2 SLP037 T01941039
KROW 212051Z 30013KT 10SM CLR 18/M04 A2978 RMK AO2 SLP056 T01831039 56039
KROW 211951Z 30005KT 10SM CLR 19/M04 A2980 RMK AO2 SLP060 T01941039
KROW 211851Z 14007KT 10SM CLR 17/M02 A2982 RMK AO2 PRESFR SLP071 T01721022
KROW 211751Z 08007KT 10SM CLR 14/M02 A2991 RMK AO2 SLP107 T01391022 10150 21028 58007
KROW 211651Z 17004KT 10SM CLR 12/M03 A2993 RMK AO2 SLP114 T01171033
KROW 211551Z 14005KT 10SM CLR 06/M03 A2994 RMK AO2 SLP126 T00611033
KROW 211451Z 14004KT 10SM CLR 00/M05 A2993 RMK AO2 SLP132 T00001050 58008
KROW 211351Z 12004KT 10SM CLR 00/M06 A2994 RMK AO2 SLP129 T00001061
KROW 211251Z 21007KT 10SM CLR M02/M06 A2996 RMK AO2 SLP140 T10171061
KROW 211151Z AUTO 22003KT 10SM CLR M01/M06 A2996 RMK AO2 SLP133 T10111056 10028 21017 58005
KROW 211051Z AUTO 20005KT 10SM CLR M01/M04 A2996 RMK AO2 SLP129 T10111044
KROW 210951Z AUTO 15003KT 10SM CLR 00/M04 A2998 RMK AO2 SLP133 T00001044
KROW 210851Z AUTO 00000KT 10SM CLR 00/M04 A2998 RMK AO2 SLP133 T00001044 56007
KROW 210751Z AUTO 02004KT 10SM CLR 01/M06 A2998 RMK AO2 SLP133 T00111056
KROW 210651Z AUTO 25007KT 10SM CLR 02/M05 A3000 RMK AO2 SLP142 T00221050 401331050
KROW 210551Z AUTO 22006KT 10SM CLR 01/M04 A3000 RMK AO2 SLP145 T00061044 10094 20006 58009
KROW 210451Z AUTO 26007KT 10SM CLR 03/M04 A3003 RMK AO2 SLP157 T00281039
KROW 210351Z 27007KT 10SM CLR 03/M04 A3004 RMK AO2 SLP165 T00281039
KROW 210251Z 28003KT 10SM CLR 03/M04 A3003 RMK AO2 SLP167 T00331044 51010
KROW 210151Z 29003KT 10SM CLR 06/M04 A3002 RMK AO2 SLP164 T00611039
KROW 210051Z 18003KT 10SM CLR 07/M03 A3001 RMK AO2 SLP157 T00721033
KROW 212320Z 2200/2224 29012G20KT P6SM SCT250 
     FM220100 28008KT P6SM BKN200 
     FM221200 31008KT P6SM SCT120 BKN200 
     FM221700 31015G25KT P6SM SCT120 BKN200